sensor_id;sensor_type;location;lat;lon;timestamp;P1;durP1;ratioP1;P2;durP2;ratioP2
59972;SDS011;55298;-36.624;-64.282;2023-01-06T00:01:27;2.90;;;1.30;;
59972;SDS011;55298;-36.624;-64.282;2023-01-06T00:03:56;6.65;;;1.80;;
59972;SDS011;55298;-36.624;-64.282;2023-01-06T00:06:27;3.60;;;1.40;;
59972;SDS011;55298;-36.624;-64.282;2023-01-06T00:09:00;4.28;;;1.40;;
59972;SDS011;55298;-36.624;-64.282;2023-01-06T00:11:29;4.05;;;1.35;;
59972;SDS011;55298;-36.624;-64.282;2023-01-06T00:13:58;7.22;;;1.70;;
59972;SDS011;55298;-36.624;-64.282;2023-01-06T00:16:32;6.82;;;1.92;;
59972;SDS011;55298;-36.624;-64.282;2023-01-06T00:19:04;5.53;;;1.75;;
59972;SDS011;55298;-36.624;-64.282;2023-01-06T00:21:33;5.03;;;1.80;;
59972;SDS011;55298;-36.624;-64.282;2023-01-06T00:24:02;6.55;;;1.90;;
59972;SDS011;55298;-36.624;-64.282;2023-01-06T00:26:31;5.50;;;1.70;;
59972;SDS011;55298;-36.624;-64.282;2023-01-06T00:28:59;5.30;;;1.77;;
59972;SDS011;55298;-36.624;-64.282;2023-01-06T00:31:29;4.70;;;2.45;;
59972;SDS011;55298;-36.624;-64.282;2023-01-06T00:33:57;6.65;;;2.05;;
59972;SDS011;55298;-36.624;-64.282;2023-01-06T00:36:25;5.45;;;1.98;;
59972;SDS011;55298;-36.624;-64.282;2023-01-06T00:38:53;8.77;;;2.10;;
59972;SDS011;55298;-36.624;-64.282;2023-01-06T00:41:21;4.47;;;2.10;;
59972;SDS011;55298;-36.624;-64.282;2023-01-06T00:43:59;6.53;;;1.90;;
59972;SDS011;55298;-36.624;-64.282;2023-01-06T00:46:28;5.28;;;1.90;;
59972;SDS011;55298;-36.624;-64.282;2023-01-06T00:48:59;6.00;;;2.08;;
59972;SDS011;55298;-36.624;-64.282;2023-01-06T00:51:29;8.38;;;3.20;;
59972;SDS011;55298;-36.624;-64.282;2023-01-06T00:53:58;6.53;;;2.72;;
59972;SDS011;55298;-36.624;-64.282;2023-01-06T00:56:27;6.82;;;1.80;;
59972;SDS011;55298;-36.624;-64.282;2023-01-06T00:58:56;4.93;;;1.80;;
59972;SDS011;55298;-36.624;-64.282;2023-01-06T01:01:23;10.38;;;1.67;;
59972;SDS011;55298;-36.624;-64.282;2023-01-06T01:03:54;6.00;;;2.10;;
59972;SDS011;55298;-36.624;-64.282;2023-01-06T01:06:22;7.72;;;1.90;;
59972;SDS011;55298;-36.624;-64.282;2023-01-06T01:08:53;6.07;;;2.15;;
59972;SDS011;55298;-36.624;-64.282;2023-01-06T01:11:21;7.40;;;1.50;;
59972;SDS011;55298;-36.624;-64.282;2023-01-06T01:13:59;5.10;;;2.35;;
59972;SDS011;55298;-36.624;-64.282;2023-01-06T01:16:27;6.25;;;1.85;;
59972;SDS011;55298;-36.624;-64.282;2023-01-06T01:18:55;8.30;;;1.70;;
59972;SDS011;55298;-36.624;-64.282;2023-01-06T01:21:24;5.15;;;1.58;;
59972;SDS011;55298;-36.624;-64.282;2023-01-06T01:23:52;4.32;;;1.60;;
59972;SDS011;55298;-36.624;-64.282;2023-01-06T01:26:21;5.70;;;2.50;;
59972;SDS011;55298;-36.624;-64.282;2023-01-06T01:28:48;6.15;;;2.60;;
59972;SDS011;55298;-36.624;-64.282;2023-01-06T01:31:17;4.93;;;2.80;;
59972;SDS011;55298;-36.624;-64.282;2023-01-06T01:33:48;5.35;;;1.90;;
59972;SDS011;55298;-36.624;-64.282;2023-01-06T01:36:17;5.40;;;1.80;;
59972;SDS011;55298;-36.624;-64.282;2023-01-06T01:38:46;4.22;;;1.35;;
59972;SDS011;55298;-36.624;-64.282;2023-01-06T01:41:16;6.35;;;1.63;;
59972;SDS011;55298;-36.624;-64.282;2023-01-06T01:43:51;3.72;;;1.60;;
59972;SDS011;55298;-36.624;-64.282;2023-01-06T01:46:35;6.45;;;2.78;;
59972;SDS011;55298;-36.624;-64.282;2023-01-06T01:49:10;5.03;;;2.05;;
59972;SDS011;55298;-36.624;-64.282;2023-01-06T01:51:51;7.88;;;2.17;;
59972;SDS011;55298;-36.624;-64.282;2023-01-06T01:54:25;8.73;;;1.90;;
59972;SDS011;55298;-36.624;-64.282;2023-01-06T01:56:57;3.95;;;1.60;;
59972;SDS011;55298;-36.624;-64.282;2023-01-06T01:59:30;5.47;;;1.90;;
59972;SDS011;55298;-36.624;-64.282;2023-01-06T02:02:00;5.80;;;2.00;;
59972;SDS011;55298;-36.624;-64.282;2023-01-06T02:04:28;7.65;;;2.20;;
59972;SDS011;55298;-36.624;-64.282;2023-01-06T02:07:03;4.82;;;1.90;;
59972;SDS011;55298;-36.624;-64.282;2023-01-06T02:09:33;5.57;;;2.60;;
59972;SDS011;55298;-36.624;-64.282;2023-01-06T02:12:12;6.50;;;1.92;;
59972;SDS011;55298;-36.624;-64.282;2023-01-06T02:14:40;7.25;;;2.10;;
59972;SDS011;55298;-36.624;-64.282;2023-01-06T02:20:14;5.68;;;2.15;;
59972;SDS011;55298;-36.624;-64.282;2023-01-06T02:23:21;4.75;;;1.70;;
59972;SDS011;55298;-36.624;-64.282;2023-01-06T02:26:22;6.65;;;1.90;;
59972;SDS011;55298;-36.624;-64.282;2023-01-06T02:29:08;5.57;;;1.90;;
59972;SDS011;55298;-36.624;-64.282;2023-01-06T02:31:55;5.35;;;2.05;;
59972;SDS011;55298;-36.624;-64.282;2023-01-06T02:37:45;9.30;;;2.08;;
59972;SDS011;55298;-36.624;-64.282;2023-01-06T02:40:45;3.95;;;1.60;;
59972;SDS011;55298;-36.624;-64.282;2023-01-06T02:43:28;5.05;;;1.85;;
59972;SDS011;55298;-36.624;-64.282;2023-01-06T02:46:15;6.80;;;1.80;;
59972;SDS011;55298;-36.624;-64.282;2023-01-06T02:49:04;6.45;;;1.52;;
59972;SDS011;55298;-36.624;-64.282;2023-01-06T02:51:43;5.18;;;1.95;;
59972;SDS011;55298;-36.624;-64.282;2023-01-06T02:57:15;5.80;;;1.40;;
59972;SDS011;55298;-36.624;-64.282;2023-01-06T03:00:35;4.18;;;1.70;;
59972;SDS011;55298;-36.624;-64.282;2023-01-06T03:03:04;6.70;;;1.60;;
59972;SDS011;55298;-36.624;-64.282;2023-01-06T03:05:39;5.03;;;1.80;;
59972;SDS011;55298;-36.624;-64.282;2023-01-06T03:08:13;3.90;;;1.60;;
59972;SDS011;55298;-36.624;-64.282;2023-01-06T03:10:47;2.85;;;1.55;;
59972;SDS011;55298;-36.624;-64.282;2023-01-06T03:13:21;9.20;;;2.20;;
59972;SDS011;55298;-36.624;-64.282;2023-01-06T03:16:13;5.85;;;1.70;;
59972;SDS011;55298;-36.624;-64.282;2023-01-06T03:18:47;2.88;;;1.67;;
59972;SDS011;55298;-36.624;-64.282;2023-01-06T03:21:19;6.68;;;1.90;;
59972;SDS011;55298;-36.624;-64.282;2023-01-06T03:23:51;4.55;;;1.67;;
59972;SDS011;55298;-36.624;-64.282;2023-01-06T03:26:19;7.10;;;2.33;;
59972;SDS011;55298;-36.624;-64.282;2023-01-06T03:28:49;5.78;;;1.65;;
59972;SDS011;55298;-36.624;-64.282;2023-01-06T03:31:28;5.25;;;1.92;;
59972;SDS011;55298;-36.624;-64.282;2023-01-06T03:35:00;3.58;;;1.65;;
59972;SDS011;55298;-36.624;-64.282;2023-01-06T03:42:55;5.10;;;1.90;;
59972;SDS011;55298;-36.624;-64.282;2023-01-06T03:45:52;5.22;;;1.98;;
59972;SDS011;55298;-36.624;-64.282;2023-01-06T03:48:43;4.22;;;1.90;;
59972;SDS011;55298;-36.624;-64.282;2023-01-06T03:54:17;7.18;;;1.95;;
59972;SDS011;55298;-36.624;-64.282;2023-01-06T03:56:57;3.63;;;1.60;;
59972;SDS011;55298;-36.624;-64.282;2023-01-06T03:59:34;5.53;;;1.70;;
59972;SDS011;55298;-36.624;-64.282;2023-01-06T04:02:07;6.47;;;1.75;;
59972;SDS011;55298;-36.624;-64.282;2023-01-06T04:04:37;4.85;;;1.88;;
59972;SDS011;55298;-36.624;-64.282;2023-01-06T04:07:04;4.45;;;1.90;;
59972;SDS011;55298;-36.624;-64.282;2023-01-06T04:09:32;6.40;;;2.00;;
59972;SDS011;55298;-36.624;-64.282;2023-01-06T04:12:01;6.40;;;1.70;;
59972;SDS011;55298;-36.624;-64.282;2023-01-06T04:14:39;4.43;;;1.70;;
59972;SDS011;55298;-36.624;-64.282;2023-01-06T04:17:07;4.20;;;2.15;;
59972;SDS011;55298;-36.624;-64.282;2023-01-06T04:19:36;2.75;;;1.70;;
59972;SDS011;55298;-36.624;-64.282;2023-01-06T04:22:05;2.40;;;1.70;;
59972;SDS011;55298;-36.624;-64.282;2023-01-06T04:24:33;5.45;;;1.60;;
59972;SDS011;55298;-36.624;-64.282;2023-01-06T04:27:01;6.55;;;1.70;;
59972;SDS011;55298;-36.624;-64.282;2023-01-06T04:29:30;3.10;;;1.83;;
59972;SDS011;55298;-36.624;-64.282;2023-01-06T04:31:58;6.57;;;1.75;;
59972;SDS011;55298;-36.624;-64.282;2023-01-06T04:34:26;3.90;;;1.70;;
59972;SDS011;55298;-36.624;-64.282;2023-01-06T04:36:54;4.55;;;2.10;;
59972;SDS011;55298;-36.624;-64.282;2023-01-06T04:39:23;5.05;;;1.77;;
59972;SDS011;55298;-36.624;-64.282;2023-01-06T04:41:52;6.68;;;1.80;;
59972;SDS011;55298;-36.624;-64.282;2023-01-06T04:44:20;5.22;;;1.70;;
59972;SDS011;55298;-36.624;-64.282;2023-01-06T04:46:48;6.50;;;2.13;;
59972;SDS011;55298;-36.624;-64.282;2023-01-06T04:49:16;4.65;;;2.05;;
59972;SDS011;55298;-36.624;-64.282;2023-01-06T04:51:44;4.32;;;1.67;;
59972;SDS011;55298;-36.624;-64.282;2023-01-06T04:54:12;7.07;;;1.98;;
59972;SDS011;55298;-36.624;-64.282;2023-01-06T04:56:40;5.63;;;2.15;;
59972;SDS011;55298;-36.624;-64.282;2023-01-06T04:59:08;5.35;;;2.00;;
59972;SDS011;55298;-36.624;-64.282;2023-01-06T05:01:36;3.40;;;1.80;;
59972;SDS011;55298;-36.624;-64.282;2023-01-06T05:04:04;6.50;;;1.85;;
59972;SDS011;55298;-36.624;-64.282;2023-01-06T05:06:32;3.95;;;1.70;;
59972;SDS011;55298;-36.624;-64.282;2023-01-06T05:09:02;7.95;;;2.10;;
59972;SDS011;55298;-36.624;-64.282;2023-01-06T05:11:30;5.10;;;1.90;;
59972;SDS011;55298;-36.624;-64.282;2023-01-06T05:14:01;10.05;;;2.20;;
59972;SDS011;55298;-36.624;-64.282;2023-01-06T05:16:31;4.40;;;1.92;;
59972;SDS011;55298;-36.624;-64.282;2023-01-06T05:19:00;3.42;;;1.70;;
59972;SDS011;55298;-36.624;-64.282;2023-01-06T05:21:28;5.57;;;1.73;;
59972;SDS011;55298;-36.624;-64.282;2023-01-06T05:23:56;4.15;;;1.77;;
59972;SDS011;55298;-36.624;-64.282;2023-01-06T05:26:25;3.67;;;1.58;;
59972;SDS011;55298;-36.624;-64.282;2023-01-06T05:28:54;6.60;;;1.90;;
59972;SDS011;55298;-36.624;-64.282;2023-01-06T05:31:23;5.03;;;1.70;;
59972;SDS011;55298;-36.624;-64.282;2023-01-06T05:33:50;5.88;;;2.08;;
59972;SDS011;55298;-36.624;-64.282;2023-01-06T05:36:19;12.68;;;2.72;;
59972;SDS011;55298;-36.624;-64.282;2023-01-06T05:38:51;5.60;;;1.50;;
59972;SDS011;55298;-36.624;-64.282;2023-01-06T05:41:20;5.38;;;1.70;;
59972;SDS011;55298;-36.624;-64.282;2023-01-06T05:43:48;7.53;;;2.05;;
59972;SDS011;55298;-36.624;-64.282;2023-01-06T05:46:16;3.35;;;1.60;;
59972;SDS011;55298;-36.624;-64.282;2023-01-06T05:48:45;8.18;;;1.80;;
59972;SDS011;55298;-36.624;-64.282;2023-01-06T05:51:14;6.88;;;1.98;;
59972;SDS011;55298;-36.624;-64.282;2023-01-06T05:53:44;5.13;;;2.00;;
59972;SDS011;55298;-36.624;-64.282;2023-01-06T05:56:14;3.65;;;1.73;;
59972;SDS011;55298;-36.624;-64.282;2023-01-06T05:58:45;3.63;;;1.90;;
59972;SDS011;55298;-36.624;-64.282;2023-01-06T06:01:18;4.82;;;2.05;;
59972;SDS011;55298;-36.624;-64.282;2023-01-06T06:03:52;4.63;;;1.80;;
59972;SDS011;55298;-36.624;-64.282;2023-01-06T06:06:22;5.28;;;1.80;;
59972;SDS011;55298;-36.624;-64.282;2023-01-06T06:08:53;4.20;;;1.63;;
59972;SDS011;55298;-36.624;-64.282;2023-01-06T06:11:21;4.93;;;1.70;;
59972;SDS011;55298;-36.624;-64.282;2023-01-06T06:13:50;6.95;;;1.80;;
59972;SDS011;55298;-36.624;-64.282;2023-01-06T06:16:24;4.75;;;1.60;;
59972;SDS011;55298;-36.624;-64.282;2023-01-06T06:18:54;4.43;;;1.55;;
59972;SDS011;55298;-36.624;-64.282;2023-01-06T06:21:26;5.97;;;1.80;;
59972;SDS011;55298;-36.624;-64.282;2023-01-06T06:23:57;3.65;;;1.70;;
59972;SDS011;55298;-36.624;-64.282;2023-01-06T06:26:26;4.07;;;1.75;;
59972;SDS011;55298;-36.624;-64.282;2023-01-06T06:28:54;6.68;;;2.13;;
59972;SDS011;55298;-36.624;-64.282;2023-01-06T06:31:23;3.90;;;1.83;;
59972;SDS011;55298;-36.624;-64.282;2023-01-06T06:33:55;4.22;;;1.90;;
59972;SDS011;55298;-36.624;-64.282;2023-01-06T06:36:24;4.72;;;2.20;;
59972;SDS011;55298;-36.624;-64.282;2023-01-06T06:38:53;3.65;;;2.35;;
59972;SDS011;55298;-36.624;-64.282;2023-01-06T06:41:22;6.95;;;2.47;;
59972;SDS011;55298;-36.624;-64.282;2023-01-06T06:43:52;2.85;;;1.73;;
59972;SDS011;55298;-36.624;-64.282;2023-01-06T06:46:22;3.08;;;2.00;;
59972;SDS011;55298;-36.624;-64.282;2023-01-06T06:48:50;3.47;;;1.80;;
59972;SDS011;55298;-36.624;-64.282;2023-01-06T06:51:18;5.00;;;2.17;;
59972;SDS011;55298;-36.624;-64.282;2023-01-06T06:53:47;4.28;;;2.13;;
59972;SDS011;55298;-36.624;-64.282;2023-01-06T06:56:17;3.05;;;1.70;;
59972;SDS011;55298;-36.624;-64.282;2023-01-06T06:58:46;2.88;;;1.70;;
59972;SDS011;55298;-36.624;-64.282;2023-01-06T07:01:15;3.70;;;1.80;;
59972;SDS011;55298;-36.624;-64.282;2023-01-06T07:03:46;3.88;;;1.60;;
59972;SDS011;55298;-36.624;-64.282;2023-01-06T07:06:15;4.15;;;1.80;;
59972;SDS011;55298;-36.624;-64.282;2023-01-06T07:08:46;3.53;;;1.65;;
59972;SDS011;55298;-36.624;-64.282;2023-01-06T07:11:15;6.75;;;1.80;;
59972;SDS011;55298;-36.624;-64.282;2023-01-06T07:13:43;2.65;;;1.88;;
59972;SDS011;55298;-36.624;-64.282;2023-01-06T07:16:13;3.65;;;1.80;;
59972;SDS011;55298;-36.624;-64.282;2023-01-06T07:18:41;3.22;;;1.80;;
59972;SDS011;55298;-36.624;-64.282;2023-01-06T07:21:09;4.25;;;1.50;;
59972;SDS011;55298;-36.624;-64.282;2023-01-06T07:23:37;2.40;;;1.85;;
59972;SDS011;55298;-36.624;-64.282;2023-01-06T07:26:05;6.00;;;1.90;;
59972;SDS011;55298;-36.624;-64.282;2023-01-06T07:28:35;4.05;;;1.75;;
59972;SDS011;55298;-36.624;-64.282;2023-01-06T07:31:03;2.92;;;1.70;;
59972;SDS011;55298;-36.624;-64.282;2023-01-06T07:33:31;4.53;;;1.67;;
59972;SDS011;55298;-36.624;-64.282;2023-01-06T07:35:59;4.35;;;1.73;;
59972;SDS011;55298;-36.624;-64.282;2023-01-06T07:38:27;4.82;;;1.50;;
59972;SDS011;55298;-36.624;-64.282;2023-01-06T07:40:58;4.22;;;1.80;;
59972;SDS011;55298;-36.624;-64.282;2023-01-06T07:43:26;4.22;;;1.63;;
59972;SDS011;55298;-36.624;-64.282;2023-01-06T07:45:55;4.57;;;1.73;;
59972;SDS011;55298;-36.624;-64.282;2023-01-06T07:48:23;2.72;;;1.75;;
59972;SDS011;55298;-36.624;-64.282;2023-01-06T07:50:50;2.88;;;1.92;;
59972;SDS011;55298;-36.624;-64.282;2023-01-06T07:53:18;3.90;;;2.10;;
59972;SDS011;55298;-36.624;-64.282;2023-01-06T07:55:53;4.35;;;1.92;;
59972;SDS011;55298;-36.624;-64.282;2023-01-06T07:58:21;4.55;;;2.00;;
59972;SDS011;55298;-36.624;-64.282;2023-01-06T08:00:50;2.38;;;2.10;;
59972;SDS011;55298;-36.624;-64.282;2023-01-06T08:03:18;3.45;;;1.90;;
59972;SDS011;55298;-36.624;-64.282;2023-01-06T08:05:47;5.57;;;2.30;;
59972;SDS011;55298;-36.624;-64.282;2023-01-06T08:08:14;2.95;;;2.50;;
59972;SDS011;55298;-36.624;-64.282;2023-01-06T08:10:43;3.65;;;2.58;;
59972;SDS011;55298;-36.624;-64.282;2023-01-06T08:13:10;3.05;;;2.40;;
59972;SDS011;55298;-36.624;-64.282;2023-01-06T08:15:39;2.95;;;2.42;;
59972;SDS011;55298;-36.624;-64.282;2023-01-06T08:18:08;3.08;;;2.63;;
59972;SDS011;55298;-36.624;-64.282;2023-01-06T08:20:35;4.97;;;2.50;;
59972;SDS011;55298;-36.624;-64.282;2023-01-06T08:23:04;3.70;;;2.53;;
59972;SDS011;55298;-36.624;-64.282;2023-01-06T08:25:32;4.00;;;2.40;;
59972;SDS011;55298;-36.624;-64.282;2023-01-06T08:28:01;6.70;;;2.85;;
59972;SDS011;55298;-36.624;-64.282;2023-01-06T08:30:30;3.83;;;2.60;;
59972;SDS011;55298;-36.624;-64.282;2023-01-06T08:33:04;5.57;;;2.78;;
59972;SDS011;55298;-36.624;-64.282;2023-01-06T08:35:34;4.57;;;2.60;;
59972;SDS011;55298;-36.624;-64.282;2023-01-06T08:38:01;4.85;;;2.72;;
59972;SDS011;55298;-36.624;-64.282;2023-01-06T08:40:30;6.47;;;3.15;;
59972;SDS011;55298;-36.624;-64.282;2023-01-06T08:42:58;4.45;;;2.70;;
59972;SDS011;55298;-36.624;-64.282;2023-01-06T08:45:26;6.05;;;3.08;;
59972;SDS011;55298;-36.624;-64.282;2023-01-06T08:47:54;5.00;;;2.72;;
59972;SDS011;55298;-36.624;-64.282;2023-01-06T08:50:22;5.13;;;3.00;;
59972;SDS011;55298;-36.624;-64.282;2023-01-06T08:52:50;5.90;;;3.35;;
59972;SDS011;55298;-36.624;-64.282;2023-01-06T08:55:18;6.60;;;3.63;;
59972;SDS011;55298;-36.624;-64.282;2023-01-06T08:57:46;7.57;;;4.25;;
59972;SDS011;55298;-36.624;-64.282;2023-01-06T09:00:15;6.97;;;3.97;;
59972;SDS011;55298;-36.624;-64.282;2023-01-06T09:02:43;5.47;;;4.13;;
59972;SDS011;55298;-36.624;-64.282;2023-01-06T09:05:12;5.03;;;4.53;;
59972;SDS011;55298;-36.624;-64.282;2023-01-06T09:07:39;6.35;;;4.57;;
59972;SDS011;55298;-36.624;-64.282;2023-01-06T09:10:08;8.93;;;4.53;;
59972;SDS011;55298;-36.624;-64.282;2023-01-06T09:12:36;7.93;;;4.38;;
59972;SDS011;55298;-36.624;-64.282;2023-01-06T09:15:05;6.45;;;4.47;;
59972;SDS011;55298;-36.624;-64.282;2023-01-06T09:17:35;5.43;;;4.40;;
59972;SDS011;55298;-36.624;-64.282;2023-01-06T09:20:03;6.55;;;4.57;;
59972;SDS011;55298;-36.624;-64.282;2023-01-06T09:22:31;7.15;;;4.30;;
59972;SDS011;55298;-36.624;-64.282;2023-01-06T09:25:00;6.88;;;4.45;;
59972;SDS011;55298;-36.624;-64.282;2023-01-06T09:27:28;6.60;;;4.32;;
59972;SDS011;55298;-36.624;-64.282;2023-01-06T09:29:57;6.32;;;4.50;;
59972;SDS011;55298;-36.624;-64.282;2023-01-06T09:32:25;7.75;;;4.00;;
59972;SDS011;55298;-36.624;-64.282;2023-01-06T09:34:53;7.07;;;4.00;;
59972;SDS011;55298;-36.624;-64.282;2023-01-06T09:37:21;8.90;;;4.13;;
59972;SDS011;55298;-36.624;-64.282;2023-01-06T09:39:49;7.72;;;4.72;;
59972;SDS011;55298;-36.624;-64.282;2023-01-06T09:42:22;9.98;;;5.32;;
59972;SDS011;55298;-36.624;-64.282;2023-01-06T09:45:05;6.25;;;4.88;;
59972;SDS011;55298;-36.624;-64.282;2023-01-06T09:47:45;8.10;;;5.10;;
59972;SDS011;55298;-36.624;-64.282;2023-01-06T09:50:28;9.50;;;5.18;;
59972;SDS011;55298;-36.624;-64.282;2023-01-06T09:53:01;8.68;;;5.10;;
59972;SDS011;55298;-36.624;-64.282;2023-01-06T09:55:37;10.15;;;5.53;;
59972;SDS011;55298;-36.624;-64.282;2023-01-06T09:58:13;7.60;;;5.60;;
59972;SDS011;55298;-36.624;-64.282;2023-01-06T10:00:50;7.78;;;5.43;;
59972;SDS011;55298;-36.624;-64.282;2023-01-06T10:03:22;5.85;;;4.90;;
59972;SDS011;55298;-36.624;-64.282;2023-01-06T10:09:02;7.70;;;5.40;;
59972;SDS011;55298;-36.624;-64.282;2023-01-06T10:11:52;17.70;;;6.20;;
59972;SDS011;55298;-36.624;-64.282;2023-01-06T10:15:00;10.40;;;5.13;;
59972;SDS011;55298;-36.624;-64.282;2023-01-06T10:23:31;7.82;;;5.43;;
59972;SDS011;55298;-36.624;-64.282;2023-01-06T10:26:15;9.60;;;5.63;;
59972;SDS011;55298;-36.624;-64.282;2023-01-06T10:28:59;7.70;;;5.70;;
59972;SDS011;55298;-36.624;-64.282;2023-01-06T10:31:37;7.30;;;5.57;;
59972;SDS011;55298;-36.624;-64.282;2023-01-06T10:37:36;7.90;;;5.35;;
59972;SDS011;55298;-36.624;-64.282;2023-01-06T10:39:40;6.53;;;5.38;;
59972;SDS011;55298;-36.624;-64.282;2023-01-06T10:47:42;5.72;;;4.90;;
59972;SDS011;55298;-36.624;-64.282;2023-01-06T10:50:12;8.63;;;6.65;;
59972;SDS011;55298;-36.624;-64.282;2023-01-06T10:52:42;8.82;;;5.63;;
59972;SDS011;55298;-36.624;-64.282;2023-01-06T10:58:02;7.32;;;5.47;;
59972;SDS011;55298;-36.624;-64.282;2023-01-06T11:01:05;8.50;;;5.72;;
59972;SDS011;55298;-36.624;-64.282;2023-01-06T11:03:40;9.73;;;5.82;;
59972;SDS011;55298;-36.624;-64.282;2023-01-06T11:08:54;10.13;;;5.93;;
59972;SDS011;55298;-36.624;-64.282;2023-01-06T11:11:25;8.55;;;5.97;;
59972;SDS011;55298;-36.624;-64.282;2023-01-06T11:13:55;8.23;;;6.00;;
59972;SDS011;55298;-36.624;-64.282;2023-01-06T11:16:33;10.77;;;6.72;;
59972;SDS011;55298;-36.624;-64.282;2023-01-06T11:19:03;8.13;;;6.45;;
59972;SDS011;55298;-36.624;-64.282;2023-01-06T11:22:00;9.90;;;7.00;;
59972;SDS011;55298;-36.624;-64.282;2023-01-06T11:24:28;8.10;;;7.30;;
59972;SDS011;55298;-36.624;-64.282;2023-01-06T11:27:00;7.80;;;6.82;;
59972;SDS011;55298;-36.624;-64.282;2023-01-06T11:29:41;12.00;;;7.30;;
59972;SDS011;55298;-36.624;-64.282;2023-01-06T11:34:53;8.20;;;6.93;;
59972;SDS011;55298;-36.624;-64.282;2023-01-06T11:42:47;9.48;;;6.45;;
59972;SDS011;55298;-36.624;-64.282;2023-01-06T11:48:01;9.73;;;6.90;;
59972;SDS011;55298;-36.624;-64.282;2023-01-06T11:50:35;17.33;;;6.60;;
59972;SDS011;55298;-36.624;-64.282;2023-01-06T11:53:12;8.82;;;5.90;;
59972;SDS011;55298;-36.624;-64.282;2023-01-06T11:58:27;6.82;;;4.93;;
59972;SDS011;55298;-36.624;-64.282;2023-01-06T12:01:38;7.68;;;5.70;;
59972;SDS011;55298;-36.624;-64.282;2023-01-06T12:04:17;6.05;;;5.35;;
59972;SDS011;55298;-36.624;-64.282;2023-01-06T12:06:59;7.93;;;6.50;;
59972;SDS011;55298;-36.624;-64.282;2023-01-06T12:09:39;8.13;;;5.22;;
59972;SDS011;55298;-36.624;-64.282;2023-01-06T12:12:10;6.38;;;5.43;;
59972;SDS011;55298;-36.624;-64.282;2023-01-06T12:14:44;7.63;;;5.40;;
59972;SDS011;55298;-36.624;-64.282;2023-01-06T12:17:16;8.75;;;5.00;;
59972;SDS011;55298;-36.624;-64.282;2023-01-06T12:19:57;6.55;;;5.57;;
59972;SDS011;55298;-36.624;-64.282;2023-01-06T12:22:47;7.85;;;5.30;;
59972;SDS011;55298;-36.624;-64.282;2023-01-06T12:25:24;6.72;;;5.70;;
59972;SDS011;55298;-36.624;-64.282;2023-01-06T12:27:57;8.23;;;5.10;;
59972;SDS011;55298;-36.624;-64.282;2023-01-06T12:31:01;8.30;;;5.20;;
59972;SDS011;55298;-36.624;-64.282;2023-01-06T12:33:31;7.45;;;5.32;;
59972;SDS011;55298;-36.624;-64.282;2023-01-06T12:36:15;7.90;;;5.03;;
59972;SDS011;55298;-36.624;-64.282;2023-01-06T12:38:56;7.55;;;4.70;;
59972;SDS011;55298;-36.624;-64.282;2023-01-06T12:41:36;9.60;;;4.50;;
59972;SDS011;55298;-36.624;-64.282;2023-01-06T12:44:32;6.82;;;4.22;;
59972;SDS011;55298;-36.624;-64.282;2023-01-06T12:47:15;7.07;;;4.57;;
59972;SDS011;55298;-36.624;-64.282;2023-01-06T12:52:39;7.07;;;4.35;;
59972;SDS011;55298;-36.624;-64.282;2023-01-06T12:55:15;5.95;;;4.97;;
59972;SDS011;55298;-36.624;-64.282;2023-01-06T12:57:53;7.95;;;4.20;;
59972;SDS011;55298;-36.624;-64.282;2023-01-06T13:00:33;5.40;;;3.88;;
59972;SDS011;55298;-36.624;-64.282;2023-01-06T13:06:11;6.57;;;4.03;;
59972;SDS011;55298;-36.624;-64.282;2023-01-06T13:08:57;7.32;;;5.18;;
59972;SDS011;55298;-36.624;-64.282;2023-01-06T13:14:24;5.60;;;4.75;;
59972;SDS011;55298;-36.624;-64.282;2023-01-06T13:17:01;7.47;;;4.35;;
59972;SDS011;55298;-36.624;-64.282;2023-01-06T13:19:45;7.03;;;4.30;;
59972;SDS011;55298;-36.624;-64.282;2023-01-06T13:22:33;5.53;;;4.18;;
59972;SDS011;55298;-36.624;-64.282;2023-01-06T13:25:27;5.25;;;3.58;;
59972;SDS011;55298;-36.624;-64.282;2023-01-06T13:28:17;6.28;;;3.72;;
59972;SDS011;55298;-36.624;-64.282;2023-01-06T13:31:07;6.63;;;3.70;;
59972;SDS011;55298;-36.624;-64.282;2023-01-06T13:39:36;6.43;;;3.65;;
59972;SDS011;55298;-36.624;-64.282;2023-01-06T13:42:10;6.22;;;3.30;;
59972;SDS011;55298;-36.624;-64.282;2023-01-06T13:44:44;3.65;;;3.13;;
59972;SDS011;55298;-36.624;-64.282;2023-01-06T13:47:15;5.40;;;3.40;;
59972;SDS011;55298;-36.624;-64.282;2023-01-06T13:49:49;4.55;;;3.72;;
59972;SDS011;55298;-36.624;-64.282;2023-01-06T13:52:22;4.82;;;3.78;;
59972;SDS011;55298;-36.624;-64.282;2023-01-06T13:54:58;5.70;;;3.33;;
59972;SDS011;55298;-36.624;-64.282;2023-01-06T13:57:33;5.00;;;3.70;;
59972;SDS011;55298;-36.624;-64.282;2023-01-06T14:00:12;11.50;;;9.07;;
59972;SDS011;55298;-36.624;-64.282;2023-01-06T14:05:47;7.80;;;4.65;;
59972;SDS011;55298;-36.624;-64.282;2023-01-06T14:08:16;7.78;;;3.40;;
59972;SDS011;55298;-36.624;-64.282;2023-01-06T14:10:46;6.88;;;3.80;;
59972;SDS011;55298;-36.624;-64.282;2023-01-06T14:13:26;11.52;;;6.70;;
59972;SDS011;55298;-36.624;-64.282;2023-01-06T14:16:01;9.25;;;4.38;;
59972;SDS011;55298;-36.624;-64.282;2023-01-06T14:18:39;5.70;;;3.30;;
59972;SDS011;55298;-36.624;-64.282;2023-01-06T14:21:23;5.30;;;3.28;;
59972;SDS011;55298;-36.624;-64.282;2023-01-06T14:24:05;4.32;;;2.65;;
59972;SDS011;55298;-36.624;-64.282;2023-01-06T14:26:48;5.18;;;3.10;;
59972;SDS011;55298;-36.624;-64.282;2023-01-06T14:32:56;8.23;;;3.53;;
59972;SDS011;55298;-36.624;-64.282;2023-01-06T14:35:37;4.95;;;3.33;;
59972;SDS011;55298;-36.624;-64.282;2023-01-06T14:38:21;4.47;;;2.90;;
59972;SDS011;55298;-36.624;-64.282;2023-01-06T14:40:59;6.05;;;4.43;;
59972;SDS011;55298;-36.624;-64.282;2023-01-06T14:43:36;6.72;;;4.32;;
59972;SDS011;55298;-36.624;-64.282;2023-01-06T14:46:15;5.28;;;3.97;;
59972;SDS011;55298;-36.624;-64.282;2023-01-06T14:48:49;3.83;;;2.70;;
59972;SDS011;55298;-36.624;-64.282;2023-01-06T14:51:23;4.45;;;3.45;;
59972;SDS011;55298;-36.624;-64.282;2023-01-06T14:53:58;5.57;;;4.00;;
59972;SDS011;55298;-36.624;-64.282;2023-01-06T14:56:31;6.10;;;2.30;;
59972;SDS011;55298;-36.624;-64.282;2023-01-06T14:59:02;8.60;;;3.10;;
59972;SDS011;55298;-36.624;-64.282;2023-01-06T15:04:32;8.02;;;2.92;;
59972;SDS011;55298;-36.624;-64.282;2023-01-06T15:07:02;6.35;;;3.88;;
59972;SDS011;55298;-36.624;-64.282;2023-01-06T15:09:43;5.20;;;3.05;;
59972;SDS011;55298;-36.624;-64.282;2023-01-06T15:17:55;6.30;;;2.47;;
59972;SDS011;55298;-36.624;-64.282;2023-01-06T15:20:27;5.20;;;2.72;;
59972;SDS011;55298;-36.624;-64.282;2023-01-06T15:22:58;3.55;;;2.42;;
59972;SDS011;55298;-36.624;-64.282;2023-01-06T15:25:30;4.60;;;2.42;;
59972;SDS011;55298;-36.624;-64.282;2023-01-06T15:28:03;7.72;;;4.05;;
59972;SDS011;55298;-36.624;-64.282;2023-01-06T15:30:32;9.20;;;3.40;;
59972;SDS011;55298;-36.624;-64.282;2023-01-06T15:33:01;7.38;;;3.00;;
59972;SDS011;55298;-36.624;-64.282;2023-01-06T15:35:32;4.40;;;3.67;;
59972;SDS011;55298;-36.624;-64.282;2023-01-06T15:38:03;3.17;;;2.30;;
59972;SDS011;55298;-36.624;-64.282;2023-01-06T15:40:54;4.45;;;1.98;;
59972;SDS011;55298;-36.624;-64.282;2023-01-06T15:43:25;4.75;;;2.10;;
59972;SDS011;55298;-36.624;-64.282;2023-01-06T15:45:56;1.70;;;1.52;;
59972;SDS011;55298;-36.624;-64.282;2023-01-06T15:48:35;3.10;;;1.55;;
59972;SDS011;55298;-36.624;-64.282;2023-01-06T15:51:12;7.68;;;5.15;;
59972;SDS011;55298;-36.624;-64.282;2023-01-06T15:53:46;6.22;;;1.90;;
59972;SDS011;55298;-36.624;-64.282;2023-01-06T15:56:31;6.40;;;2.22;;
59972;SDS011;55298;-36.624;-64.282;2023-01-06T15:58:59;6.53;;;5.28;;
59972;SDS011;55298;-36.624;-64.282;2023-01-06T16:01:28;9.15;;;5.00;;
59972;SDS011;55298;-36.624;-64.282;2023-01-06T16:03:58;4.20;;;1.80;;
59972;SDS011;55298;-36.624;-64.282;2023-01-06T16:06:29;5.00;;;2.03;;
59972;SDS011;55298;-36.624;-64.282;2023-01-06T16:14:47;7.13;;;2.03;;